Time;durP1;ratioP1;P1;durP2;ratioP2;P2;SDS_P1;SDS_P2;PMS_P1;PMS_P2;Temp;Humidity;BMP_temperature;BMP_pressure;BME280_temperature;BME280_humidity;BME280_pressure;Samples;Min_cycle;Max_cycle;Signal;HPM_P1;HPM_P2
2024/01/11 00:02:47;;;;;;;43.83;29.23;;;;;;;;;;2614643;47;21579;-77
2024/01/11 00:08:17;;;;;;;45.40;29.90;;;;;;;;;;2615688;39;20764;-76
2024/01/11 00:13:47;;;;;;;49.47;28.93;;;;;;;;;;2615628;54;20333;-75
2024/01/11 00:19:16;;;;;;;46.50;30.23;;;;;;;;;;2616890;54;20414;-77
2024/01/11 00:24:46;;;;;;;45.10;28.33;;;;;;;;;;2616100;54;20448;-77
2024/01/11 00:30:15;;;;;;;52.03;28.90;;;;;;;;;;2616079;54;20365;-77
2024/01/11 00:35:45;;;;;;;52.67;30.50;;;;;;;;;;2615839;54;20361;-78
2024/01/11 00:41:15;;;;;;;40.40;26.20;;;;;;;;;;2615538;54;20468;-78
2024/01/11 00:46:45;;;;;;;47.60;31.07;;;;;;;;;;2616383;54;20390;-79
2024/01/11 00:52:14;;;;;;;47.70;29.17;;;;;;;;;;2616087;54;20370;-76
2024/01/11 00:57:44;;;;;;;45.53;30.60;;;;;;;;;;2615381;54;20429;-76
2024/01/11 01:03:14;;;;;;;40.50;25.27;;;;;;;;;;2616320;39;20731;-76
2024/01/11 01:08:44;;;;;;;41.10;27.67;;;;;;;;;;2615548;54;20388;-80
2024/01/11 01:14:14;;;;;;;52.53;28.27;;;;;;;;;;2616381;39;20671;-79
2024/01/11 01:19:44;;;;;;;51.97;29.13;;;;;;;;;;2616232;54;20379;-79
2024/01/11 01:25:13;;;;;;;46.50;27.63;;;;;;;;;;2616410;54;20973;-79
2024/01/11 01:30:43;;;;;;;54.10;30.07;;;;;;;;;;2615055;54;20483;-75
2024/01/11 01:36:13;;;;;;;46.90;29.50;;;;;;;;;;2615383;54;20377;-76
2024/01/11 01:41:43;;;;;;;49.00;27.60;;;;;;;;;;2615386;54;20396;-75
2024/01/11 01:47:13;;;;;;;41.47;28.10;;;;;;;;;;2614998;54;20436;-75
2024/01/11 01:52:44;;;;;;;41.80;27.93;;;;;;;;;;2614952;54;20490;-75
2024/01/11 01:58:13;;;;;;;40.60;26.50;;;;;;;;;;2614483;54;20377;-75
2024/01/11 02:03:44;;;;;;;45.97;28.07;;;;;;;;;;2614443;39;20674;-74
2024/01/11 02:09:14;;;;;;;44.97;28.30;;;;;;;;;;2614980;54;20377;-76
2024/01/11 02:14:43;;;;;;;46.07;26.80;;;;;;;;;;2614989;54;20995;-75
2024/01/11 02:20:13;;;;;;;53.13;29.00;;;;;;;;;;2614725;54;20372;-74
2024/01/11 02:31:50;;;;;;;61.33;31.63;;;;;;;;;;2615986;54;20527;-80
2024/01/11 02:37:19;;;;;;;41.90;27.30;;;;;;;;;;2615718;54;20979;-79
2024/01/11 02:42:49;;;;;;;50.33;28.00;;;;;;;;;;2615663;54;20475;-76
2024/01/11 02:48:19;;;;;;;44.60;27.60;;;;;;;;;;2614894;54;20510;-75
2024/01/11 02:53:48;;;;;;;42.27;27.67;;;;;;;;;;2615861;54;20374;-74
2024/01/11 02:59:18;;;;;;;44.27;28.07;;;;;;;;;;2615457;54;20397;-76
2024/01/11 03:04:48;;;;;;;46.87;29.50;;;;;;;;;;2615820;54;20390;-76
2024/01/11 03:10:17;;;;;;;47.13;25.30;;;;;;;;;;2615771;54;20419;-75
2024/01/11 03:15:47;;;;;;;46.03;25.83;;;;;;;;;;2615631;54;20383;-75
2024/01/11 03:21:17;;;;;;;56.07;27.07;;;;;;;;;;2615622;54;20385;-75
2024/01/11 03:30:27;;;;;;;40.77;27.87;;;;;;;;;;2614290;54;20479;-76
2024/01/11 03:35:57;;;;;;;53.60;27.70;;;;;;;;;;2615419;54;20384;-75
2024/01/11 03:41:26;;;;;;;57.03;28.20;;;;;;;;;;2614697;54;20384;-75
2024/01/11 03:46:56;;;;;;;54.57;28.80;;;;;;;;;;2614572;54;20385;-78
2024/01/11 03:52:26;;;;;;;46.70;28.13;;;;;;;;;;2615587;54;20434;-79
2024/01/11 03:57:55;;;;;;;41.60;26.03;;;;;;;;;;2614842;54;20429;-81
2024/01/11 04:03:25;;;;;;;57.80;27.80;;;;;;;;;;2615165;54;20354;-75
2024/01/11 04:08:54;;;;;;;38.37;25.13;;;;;;;;;;2613878;54;20395;-75
2024/01/11 04:14:24;;;;;;;51.50;28.23;;;;;;;;;;2614799;54;21015;-75
2024/01/11 04:19:54;;;;;;;46.10;28.27;;;;;;;;;;2614111;54;20953;-74
2024/01/11 04:25:23;;;;;;;42.33;27.00;;;;;;;;;;2614095;54;20377;-75
2024/01/11 04:30:53;;;;;;;49.77;27.70;;;;;;;;;;2615040;39;20803;-76
2024/01/11 04:36:23;;;;;;;42.17;22.87;;;;;;;;;;2615387;54;20396;-76
2024/01/11 04:41:52;;;;;;;44.57;27.13;;;;;;;;;;2615048;39;20744;-76
2024/01/11 04:47:22;;;;;;;51.60;26.73;;;;;;;;;;2614907;54;20377;-76
2024/01/11 04:52:52;;;;;;;47.23;27.90;;;;;;;;;;2615715;46;20455;-77
2024/01/11 04:58:22;;;;;;;52.83;29.03;;;;;;;;;;2615824;54;20361;-75
2024/01/11 05:03:51;;;;;;;39.07;26.80;;;;;;;;;;2615687;54;20378;-76
2024/01/11 05:09:21;;;;;;;43.20;28.50;;;;;;;;;;2615934;54;20382;-78
2024/01/11 05:14:50;;;;;;;46.10;27.83;;;;;;;;;;2616040;54;21475;-76
2024/01/11 05:20:21;;;;;;;51.67;30.80;;;;;;;;;;2617126;31;20835;-77
2024/01/11 05:25:51;;;;;;;57.07;29.20;;;;;;;;;;2615406;54;20395;-76
2024/01/11 05:35:02;;;;;;;45.87;29.87;;;;;;;;;;2612908;54;20382;-77
2024/01/11 05:40:31;;;;;;;52.10;27.97;;;;;;;;;;2612615;54;20371;-77
2024/01/11 05:46:01;;;;;;;55.50;28.70;;;;;;;;;;2614070;54;20388;-75
2024/01/11 05:51:31;;;;;;;54.53;29.07;;;;;;;;;;2613430;54;20361;-75
2024/01/11 05:57:01;;;;;;;48.87;30.33;;;;;;;;;;2614607;54;21002;-75
2024/01/11 06:02:31;;;;;;;47.27;27.23;;;;;;;;;;2614658;54;21053;-78
2024/01/11 06:08:01;;;;;;;44.80;26.20;;;;;;;;;;2613107;54;20391;-79
2024/01/11 06:13:31;;;;;;;53.07;27.70;;;;;;;;;;2610593;54;20426;-78
2024/01/11 06:19:01;;;;;;;46.80;29.50;;;;;;;;;;2611837;54;20444;-79
2024/01/11 06:24:30;;;;;;;55.00;29.37;;;;;;;;;;2613163;39;20755;-76
2024/01/11 06:30:00;;;;;;;38.43;27.30;;;;;;;;;;2612411;54;20382;-75
2024/01/11 06:35:31;;;;;;;45.23;26.97;;;;;;;;;;2613466;54;20445;-75
2024/01/11 06:41:00;;;;;;;40.07;26.43;;;;;;;;;;2608780;54;20561;-76
2024/01/11 06:46:30;;;;;;;56.57;30.97;;;;;;;;;;2610061;54;20355;-75
2024/01/11 06:52:00;;;;;;;42.73;25.53;;;;;;;;;;2610896;54;20428;-75
2024/01/11 06:57:30;;;;;;;42.30;29.70;;;;;;;;;;2611116;39;20769;-76
2024/01/11 07:02:59;;;;;;;49.07;28.43;;;;;;;;;;2609153;54;20378;-74
2024/01/11 07:08:30;;;;;;;63.70;32.07;;;;;;;;;;2609349;54;20412;-76
2024/01/11 07:14:00;;;;;;;47.03;30.90;;;;;;;;;;2610991;54;20436;-76
2024/01/11 07:19:29;;;;;;;50.13;31.57;;;;;;;;;;2611477;54;20373;-76
2024/01/11 07:24:59;;;;;;;63.90;34.23;;;;;;;;;;2610785;54;20375;-76
2024/01/11 07:30:28;;;;;;;54.20;31.27;;;;;;;;;;2612733;54;20394;-75
2024/01/11 07:39:32;;;;;;;59.40;31.20;;;;;;;;;;2610963;54;21089;-76
2024/01/11 07:45:02;;;;;;;66.20;32.73;;;;;;;;;;2611746;54;20390;-77
2024/01/11 07:50:31;;;;;;;45.00;29.80;;;;;;;;;;2611891;54;20467;-77
2024/01/11 07:56:01;;;;;;;54.70;31.60;;;;;;;;;;2612618;54;20471;-76
2024/01/11 08:01:31;;;;;;;53.87;29.83;;;;;;;;;;2612765;54;20408;-77
2024/01/11 08:07:01;;;;;;;62.00;29.77;;;;;;;;;;2611890;54;20385;-76
2024/01/11 08:12:31;;;;;;;59.83;32.00;;;;;;;;;;2614081;39;20764;-77
2024/01/11 08:18:01;;;;;;;50.03;32.80;;;;;;;;;;2611898;54;20587;-77
2024/01/11 08:23:30;;;;;;;64.23;35.23;;;;;;;;;;2611987;54;20345;-76
2024/01/11 08:29:00;;;;;;;56.93;36.50;;;;;;;;;;2613116;54;20368;-77
2024/01/11 08:31:45;;;;;;;76.03;35.63;;;;;;;;;;2612005;54;20518;-76
2024/01/11 08:34:11;;;;;;;62.80;36.70;;;;;;;;;;2614531;39;20797;-76
2024/01/11 08:36:38;;;;;;;60.40;39.47;;;;;;;;;;2612262;54;21806;-76
2024/01/11 08:39:08;;;;;;;74.00;37.20;;;;;;;;;;2613044;54;20403;-76
2024/01/11 08:44:41;;;;;;;74.70;42.07;;;;;;;;;;2613585;54;20895;-79
2024/01/11 08:50:14;;;;;;;58.37;39.37;;;;;;;;;;2612891;54;20388;-77
2024/01/11 08:55:44;;;;;;;73.17;44.30;;;;;;;;;;2611351;54;20423;-76
2024/01/11 09:01:15;;;;;;;69.43;42.10;;;;;;;;;;2611350;54;20507;-77
2024/01/11 09:06:44;;;;;;;63.47;39.37;;;;;;;;;;2612802;54;20379;-79
2024/01/11 09:12:14;;;;;;;59.23;38.90;;;;;;;;;;2612949;54;20404;-78
2024/01/11 09:17:43;;;;;;;68.50;41.77;;;;;;;;;;2612110;39;20691;-75
2024/01/11 09:23:13;;;;;;;58.77;38.13;;;;;;;;;;2612999;54;20540;-77
2024/01/11 09:28:43;;;;;;;64.93;40.53;;;;;;;;;;2612767;54;20399;-76
2024/01/11 09:34:13;;;;;;;66.07;38.33;;;;;;;;;;2612374;54;20401;-80
2024/01/11 09:43:21;;;;;;;65.07;40.20;;;;;;;;;;2612944;39;20612;-74
2024/01/11 09:48:51;;;;;;;58.03;38.63;;;;;;;;;;2613848;54;20359;-74
2024/01/11 09:54:21;;;;;;;57.77;37.10;;;;;;;;;;2611817;54;21006;-76
2024/01/11 09:59:53;;;;;;;51.77;39.03;;;;;;;;;;2611933;54;20413;-75
2024/01/11 10:05:22;;;;;;;60.87;40.07;;;;;;;;;;2612230;54;20440;-75
2024/01/11 10:10:52;;;;;;;47.07;40.50;;;;;;;;;;2613811;54;20433;-75
2024/01/11 10:16:22;;;;;;;54.67;40.47;;;;;;;;;;2611201;54;20360;-74
2024/01/11 10:21:52;;;;;;;60.13;40.30;;;;;;;;;;2615924;54;20401;-79
2024/01/11 10:27:27;;;;;;;56.43;39.97;;;;;;;;;;2614618;54;20401;-78
2024/01/11 10:32:58;;;;;;;50.27;37.93;;;;;;;;;;2615697;54;20389;-78
2024/01/11 10:38:29;;;;;;;50.50;40.30;;;;;;;;;;2613065;54;20381;-77
2024/01/11 10:44:00;;;;;;;50.40;38.97;;;;;;;;;;2612831;54;20464;-75
2024/01/11 10:46:52;;;;;;;50.97;41.10;;;;;;;;;;2612555;54;20427;-74
2024/01/11 10:49:23;;;;;;;57.93;41.63;;;;;;;;;;2610672;54;20422;-76
2024/01/11 10:54:53;;;;;;;59.17;41.57;;;;;;;;;;2611592;54;20396;-76
2024/01/11 11:00:23;;;;;;;58.50;38.00;;;;;;;;;;2611764;54;20390;-77
2024/01/11 11:03:08;;;;;;;50.00;42.80;;;;;;;;;;2611621;54;20451;-77
2024/01/11 11:05:35;;;;;;;45.97;37.67;;;;;;;;;;2611960;47;20442;-75
2024/01/11 11:11:06;;;;;;;46.27;38.60;;;;;;;;;;2611791;54;20411;-79
2024/01/11 11:16:35;;;;;;;58.70;39.90;;;;;;;;;;2611748;54;20396;-77
2024/01/11 11:22:05;;;;;;;45.80;36.87;;;;;;;;;;2611592;54;20490;-77
2024/01/11 11:27:35;;;;;;;45.77;37.47;;;;;;;;;;2614771;54;20465;-77
2024/01/11 11:33:16;;;;;;;43.50;34.23;;;;;;;;;;2612170;54;20499;-77
2024/01/11 11:38:45;;;;;;;40.83;33.90;;;;;;;;;;2614619;54;20398;-77
2024/01/11 11:47:59;;;;;;;42.23;36.27;;;;;;;;;;2613939;54;20438;-77
2024/01/11 11:53:33;;;;;;;44.73;30.90;;;;;;;;;;2612986;54;20390;-76
2024/01/11 11:59:03;;;;;;;43.77;34.30;;;;;;;;;;2614582;54;20961;-79
2024/01/11 12:04:33;;;;;;;36.27;32.30;;;;;;;;;;2613774;54;20468;-76
2024/01/11 12:10:03;;;;;;;48.23;35.33;;;;;;;;;;2614217;54;20447;-79
2024/01/11 12:12:50;;;;;;;39.80;31.73;;;;;;;;;;2614400;54;20432;-79
2024/01/11 12:15:16;;;;;;;37.73;32.13;;;;;;;;;;2615902;54;20415;-80
2024/01/11 12:20:45;;;;;;;41.23;33.07;;;;;;;;;;2615525;54;20378;-79
2024/01/11 12:26:16;;;;;;;38.77;32.10;;;;;;;;;;2612894;39;20770;-74
2024/01/11 12:31:45;;;;;;;41.60;31.10;;;;;;;;;;2614129;54;20996;-74
2024/01/11 12:37:16;;;;;;;40.13;33.03;;;;;;;;;;2611433;54;20378;-75
2024/01/11 12:42:45;;;;;;;39.43;32.50;;;;;;;;;;2611380;54;20386;-78
2024/01/11 12:48:17;;;;;;;40.97;33.57;;;;;;;;;;2612909;54;20601;-78
2024/01/11 12:53:48;;;;;;;36.70;30.83;;;;;;;;;;2611844;54;20359;-78
2024/01/11 12:59:18;;;;;;;46.13;29.77;;;;;;;;;;2612493;39;20744;-77
2024/01/11 13:02:03;;;;;;;35.07;29.30;;;;;;;;;;2611820;54;20402;-78
2024/01/11 13:04:29;;;;;;;37.23;29.93;;;;;;;;;;2612508;54;20418;-76
2024/01/11 13:10:05;;;;;;;33.77;28.50;;;;;;;;;;2614838;54;20407;-75
2024/01/11 13:15:36;;;;;;;33.37;27.27;;;;;;;;;;2614787;54;20382;-75
2024/01/11 13:21:09;;;;;;;33.07;28.10;;;;;;;;;;2613459;54;20390;-76
2024/01/11 13:26:40;;;;;;;30.70;27.13;;;;;;;;;;2613420;39;20482;-76
2024/01/11 13:32:11;;;;;;;34.00;26.57;;;;;;;;;;2613485;54;21119;-77
2024/01/11 13:37:40;;;;;;;27.37;24.47;;;;;;;;;;2612641;54;20403;-78
2024/01/11 13:43:10;;;;;;;28.20;24.97;;;;;;;;;;2612872;39;20769;-77
2024/01/11 13:52:04;;;;;;;29.93;25.50;;;;;;;;;;2613413;54;20411;-79
2024/01/11 13:54:30;;;;;;;27.97;24.17;;;;;;;;;;2610801;47;20425;-78
2024/01/11 14:00:01;;;;;;;33.20;25.57;;;;;;;;;;2615656;39;20765;-76
2024/01/11 14:05:30;;;;;;;29.00;24.10;;;;;;;;;;2614375;54;20336;-77
2024/01/11 14:11:00;;;;;;;31.80;25.03;;;;;;;;;;2615019;54;21031;-76
2024/01/11 14:16:30;;;;;;;28.23;25.17;;;;;;;;;;2615228;46;20402;-77
2024/01/11 14:22:00;;;;;;;28.67;24.40;;;;;;;;;;2614380;54;20400;-76
2024/01/11 14:27:30;;;;;;;31.87;24.77;;;;;;;;;;2615553;54;20419;-77
2024/01/11 14:33:00;;;;;;;28.80;25.13;;;;;;;;;;2613542;54;21186;-77
2024/01/11 14:38:29;;;;;;;32.90;24.60;;;;;;;;;;2613532;54;20410;-76
2024/01/11 14:44:00;;;;;;;26.40;23.70;;;;;;;;;;2611378;54;20430;-79
2024/01/11 14:52:58;;;;;;;29.47;26.30;;;;;;;;;;2614286;54;20503;-79
2024/01/11 14:58:28;;;;;;;24.90;20.23;;;;;;;;;;2614023;54;20557;-78
2024/01/11 15:03:57;;;;;;;26.30;22.40;;;;;;;;;;2613861;54;20386;-78
2024/01/11 15:09:27;;;;;;;27.77;22.50;;;;;;;;;;2614160;54;20390;-79
2024/01/11 15:14:58;;;;;;;25.03;20.97;;;;;;;;;;2615059;54;20382;-79
2024/01/11 15:20:29;;;;;;;24.73;21.60;;;;;;;;;;2613482;54;21023;-79
2024/01/11 15:25:58;;;;;;;22.67;17.80;;;;;;;;;;2612240;54;20416;-77
2024/01/11 15:31:28;;;;;;;20.43;14.03;;;;;;;;;;2614320;54;20391;-78
2024/01/11 15:36:57;;;;;;;14.50;11.13;;;;;;;;;;2614192;54;20378;-75
2024/01/11 15:42:27;;;;;;;12.73;10.30;;;;;;;;;;2614695;54;20482;-75
2024/01/11 15:47:57;;;;;;;13.50;12.00;;;;;;;;;;2614580;54;20390;-74
2024/01/11 15:53:26;;;;;;;14.00;11.13;;;;;;;;;;2615069;39;20936;-74
2024/01/11 15:58:56;;;;;;;11.80;9.83;;;;;;;;;;2614497;54;20388;-74
2024/01/11 16:04:26;;;;;;;13.57;10.17;;;;;;;;;;2613971;54;20371;-73
2024/01/11 16:09:55;;;;;;;11.77;10.10;;;;;;;;;;2614839;54;20389;-73
2024/01/11 16:15:25;;;;;;;10.40;9.30;;;;;;;;;;2613867;54;20969;-74
2024/01/11 16:20:55;;;;;;;12.67;8.70;;;;;;;;;;2614479;54;20937;-75
2024/01/11 16:26:24;;;;;;;12.20;9.30;;;;;;;;;;2614249;54;20422;-73
2024/01/11 16:31:54;;;;;;;8.40;7.53;;;;;;;;;;2614529;54;20386;-74
2024/01/11 16:37:24;;;;;;;9.40;8.37;;;;;;;;;;2613319;54;20390;-77
2024/01/11 16:42:54;;;;;;;14.63;10.73;;;;;;;;;;2615973;54;21007;-78
2024/01/11 16:48:24;;;;;;;12.53;10.07;;;;;;;;;;2613992;54;20350;-77
2024/01/11 16:57:34;;;;;;;13.10;10.37;;;;;;;;;;2613132;54;20415;-77
2024/01/11 17:03:05;;;;;;;19.57;10.97;;;;;;;;;;2615189;54;20362;-75
2024/01/11 17:08:35;;;;;;;20.97;14.40;;;;;;;;;;2611376;54;20390;-77
2024/01/11 17:14:05;;;;;;;20.63;14.97;;;;;;;;;;2611255;54;20383;-77
2024/01/11 17:19:35;;;;;;;18.20;12.70;;;;;;;;;;2613254;54;20402;-77
2024/01/11 17:25:05;;;;;;;19.00;14.60;;;;;;;;;;2612719;54;20391;-76
2024/01/11 17:30:34;;;;;;;15.83;13.10;;;;;;;;;;2612621;54;20497;-78
2024/01/11 17:36:05;;;;;;;17.73;10.23;;;;;;;;;;2614041;54;20394;-76
2024/01/11 17:41:39;;;;;;;31.73;20.00;;;;;;;;;;2611861;54;20346;-76
2024/01/11 17:47:09;;;;;;;21.97;17.53;;;;;;;;;;2614561;54;20498;-76
2024/01/11 17:52:39;;;;;;;17.50;14.33;;;;;;;;;;2612528;54;21254;-76
2024/01/11 17:58:10;;;;;;;21.37;14.80;;;;;;;;;;2611004;54;20370;-77
2024/01/11 18:03:39;;;;;;;20.80;12.50;;;;;;;;;;2612596;54;20366;-77
2024/01/11 18:09:08;;;;;;;19.50;15.47;;;;;;;;;;2612933;54;20528;-78
2024/01/11 18:14:39;;;;;;;21.93;14.50;;;;;;;;;;2612686;39;20787;-79
2024/01/11 18:20:09;;;;;;;20.33;14.30;;;;;;;;;;2616284;39;20748;-78
2024/01/11 18:25:38;;;;;;;22.37;14.53;;;;;;;;;;2613512;54;20392;-77
2024/01/11 18:31:08;;;;;;;22.13;14.90;;;;;;;;;;2617325;54;21415;-78
2024/01/11 18:36:45;;;;;;;34.63;18.73;;;;;;;;;;2613888;54;20414;-77
2024/01/11 18:42:15;;;;;;;24.93;18.00;;;;;;;;;;2611907;54;20345;-78
2024/01/11 18:47:45;;;;;;;33.23;19.27;;;;;;;;;;2613302;54;20452;-78
2024/01/11 18:59:21;;;;;;;32.37;20.47;;;;;;;;;;2612162;54;20366;-76
2024/01/11 19:02:09;;;;;;;42.37;22.33;;;;;;;;;;2613194;31;20862;-77
2024/01/11 19:04:36;;;;;;;36.67;20.30;;;;;;;;;;2612817;47;20444;-77
2024/01/11 19:10:06;;;;;;;31.50;19.20;;;;;;;;;;2611543;54;20370;-78
2024/01/11 19:15:36;;;;;;;34.53;18.90;;;;;;;;;;2613105;54;20366;-77
2024/01/11 19:21:06;;;;;;;28.90;19.40;;;;;;;;;;2614679;39;20767;-77
2024/01/11 19:26:42;;;;;;;31.73;17.50;;;;;;;;;;2614059;54;20402;-79
2024/01/11 19:32:11;;;;;;;34.17;18.50;;;;;;;;;;2612725;54;20514;-77
2024/01/11 19:37:41;;;;;;;31.40;20.00;;;;;;;;;;2612724;54;20362;-75
2024/01/11 19:43:11;;;;;;;30.37;21.73;;;;;;;;;;2614509;54;20366;-74
2024/01/11 19:48:40;;;;;;;38.27;22.00;;;;;;;;;;2613444;54;20362;-77
2024/01/11 20:03:21;;;;;;;42.67;24.00;;;;;;;;;;2611980;54;20394;-75
2024/01/11 20:08:51;;;;;;;37.17;24.50;;;;;;;;;;2614035;54;20358;-76
2024/01/11 20:14:20;;;;;;;36.93;21.93;;;;;;;;;;2614815;54;20448;-76
2024/01/11 20:19:50;;;;;;;42.03;23.67;;;;;;;;;;2614848;54;20358;-76
2024/01/11 20:25:20;;;;;;;36.90;23.57;;;;;;;;;;2614545;54;20415;-75
2024/01/11 20:30:50;;;;;;;51.33;27.47;;;;;;;;;;2613796;54;20365;-77
2024/01/11 20:36:19;;;;;;;44.40;25.77;;;;;;;;;;2614240;54;20370;-76
2024/01/11 20:41:49;;;;;;;34.60;23.57;;;;;;;;;;2612452;54;20539;-74
2024/01/11 20:47:22;;;;;;;44.57;24.00;;;;;;;;;;2614769;54;20415;-78
2024/01/11 20:52:52;;;;;;;41.70;26.60;;;;;;;;;;2614201;54;20379;-76
2024/01/11 20:58:22;;;;;;;42.23;26.20;;;;;;;;;;2614814;39;20769;-74
2024/01/11 21:03:55;;;;;;;48.23;26.47;;;;;;;;;;2615067;54;20415;-77
2024/01/11 21:09:25;;;;;;;48.30;28.67;;;;;;;;;;2615174;54;20965;-77
2024/01/11 21:14:55;;;;;;;39.03;25.50;;;;;;;;;;2615190;54;21075;-75
2024/01/11 21:20:24;;;;;;;52.33;28.80;;;;;;;;;;2613157;54;20922;-75
2024/01/11 21:25:54;;;;;;;43.60;27.77;;;;;;;;;;2614428;54;20375;-76
2024/01/11 21:31:25;;;;;;;56.30;29.17;;;;;;;;;;2613919;54;20407;-75
2024/01/11 21:36:54;;;;;;;50.20;29.10;;;;;;;;;;2614794;54;20913;-75
2024/01/11 21:42:25;;;;;;;56.87;31.70;;;;;;;;;;2613830;54;20966;-76
2024/01/11 21:47:55;;;;;;;58.20;29.83;;;;;;;;;;2614202;54;20416;-75
2024/01/11 21:53:29;;;;;;;58.53;34.17;;;;;;;;;;2614783;54;20394;-76
2024/01/11 21:58:59;;;;;;;51.83;30.30;;;;;;;;;;2614141;54;20372;-74
2024/01/11 22:04:29;;;;;;;47.03;30.40;;;;;;;;;;2615499;46;20402;-77
2024/01/11 22:09:59;;;;;;;51.27;30.80;;;;;;;;;;2615508;39;20787;-77
2024/01/11 22:15:28;;;;;;;50.60;30.90;;;;;;;;;;2614004;54;20358;-74
2024/01/11 22:20:58;;;;;;;50.80;30.63;;;;;;;;;;2615784;54;20346;-75
2024/01/11 22:26:28;;;;;;;46.97;28.70;;;;;;;;;;2613833;54;20400;-76
2024/01/11 22:32:00;;;;;;;47.13;25.00;;;;;;;;;;2615153;54;20925;-77
2024/01/11 22:37:29;;;;;;;45.70;27.80;;;;;;;;;;2614114;54;20501;-76
2024/01/11 22:42:59;;;;;;;53.00;30.40;;;;;;;;;;2613411;54;21327;-76
2024/01/11 22:48:29;;;;;;;55.53;31.80;;;;;;;;;;2614671;54;20394;-77
2024/01/11 23:00:20;;;;;;;66.13;33.10;;;;;;;;;;2614296;54;20370;-77
2024/01/11 23:05:49;;;;;;;54.63;32.23;;;;;;;;;;2611333;54;20534;-76
2024/01/11 23:11:18;;;;;;;61.97;33.70;;;;;;;;;;2613499;54;20402;-76
2024/01/11 23:16:48;;;;;;;59.03;31.50;;;;;;;;;;2614317;54;20402;-76
2024/01/11 23:22:17;;;;;;;74.47;36.60;;;;;;;;;;2613879;54;20470;-75
2024/01/11 23:27:47;;;;;;;64.73;32.90;;;;;;;;;;2613057;54;20971;-77
2024/01/11 23:33:16;;;;;;;68.07;35.43;;;;;;;;;;2613316;54;20395;-76
2024/01/11 23:38:46;;;;;;;66.33;33.20;;;;;;;;;;2613863;39;20830;-74
2024/01/11 23:44:15;;;;;;;77.40;38.63;;;;;;;;;;2614430;54;20349;-74
2024/01/11 23:49:45;;;;;;;76.07;39.47;;;;;;;;;;2614945;54;20355;-77
